Time;durP1;ratioP1;P1;durP2;ratioP2;P2;SDS_P1;SDS_P2;PMS_P1;PMS_P2;Temp;Humidity;BMP_temperature;BMP_pressure;BME280_temperature;BME280_humidity;BME280_pressure;Samples;Min_cycle;Max_cycle;Signal;HPM_P1;HPM_P2
2023/03/31 00:02:24;;;;;;;1.30;1.10;;;;;;;8.20;100.00;97467.78;1712943;75;599099;-71
2023/03/31 00:04:58;;;;;;;1.40;1.00;;;;;;;8.15;100.00;97464.91;1705545;75;649041;-71
2023/03/31 00:07:28;;;;;;;1.20;1.10;;;;;;;8.01;100.00;97461.66;1712910;75;599421;-71
2023/03/31 00:10:00;;;;;;;1.60;1.15;;;;;;;7.96;100.00;97462.31;1705263;75;652443;-72
2023/03/31 00:12:30;;;;;;;1.70;1.30;;;;;;;7.94;100.00;97463.94;1713083;75;599283;-72
2023/03/31 00:15:03;;;;;;;1.50;1.20;;;;;;;7.88;100.00;97469.28;1705123;75;649622;-71
2023/03/31 00:17:34;;;;;;;2.70;1.50;;;;;;;7.62;100.00;97472.41;1713123;75;599760;-73
2023/03/31 00:20:04;;;;;;;5.50;3.60;;;;;;;7.32;100.00;97481.63;1705242;75;652335;-72
2023/03/31 00:22:37;;;;;;;4.30;3.50;;;;;;;7.40;100.00;97485.50;1712792;75;599112;-72
2023/03/31 00:25:09;;;;;;;3.95;2.50;;;;;;;7.51;100.00;97482.31;1704737;75;653083;-72
2023/03/31 00:27:39;;;;;;;3.20;2.10;;;;;;;7.44;100.00;97475.97;1713073;75;599124;-71
2023/03/31 00:30:14;;;;;;;2.75;2.25;;;;;;;7.17;100.00;97473.34;1705009;75;653413;-73
2023/03/31 00:32:45;;;;;;;3.25;2.45;;;;;;;7.15;100.00;97473.78;1710563;75;599437;-72
2023/03/31 00:35:15;;;;;;;5.10;2.30;;;;;;;7.18;100.00;97472.84;1712614;75;599081;-72
2023/03/31 00:37:46;;;;;;;5.50;3.50;;;;;;;6.88;100.00;97473.81;1705654;75;599075;-72
2023/03/31 00:40:16;;;;;;;4.50;3.30;;;;;;;6.97;100.00;97476.53;1712613;75;599108;-72
2023/03/31 00:42:47;;;;;;;3.15;2.60;;;;;;;7.08;100.00;97481.50;1705489;75;599175;-69
2023/03/31 00:45:33;;;;;;;3.20;2.40;;;;;;;6.99;100.00;97476.81;1712472;75;599088;-72
2023/03/31 00:48:10;;;;;;;2.90;2.10;;;;;;;7.04;100.00;97484.38;1705431;75;599161;-73
2023/03/31 00:50:49;;;;;;;1.90;1.50;;;;;;;7.09;100.00;97483.00;1712738;75;599125;-72
2023/03/31 00:53:24;;;;;;;3.30;2.00;;;;;;;7.11;100.00;97488.75;1705190;75;652406;-72
2023/03/31 00:55:59;;;;;;;1.50;1.40;;;;;;;7.02;100.00;97490.28;1712475;75;599202;-71
2023/03/31 00:58:32;;;;;;;2.05;1.50;;;;;;;7.04;100.00;97478.94;1705157;75;651867;-72
2023/03/31 01:01:07;;;;;;;1.80;1.40;;;;;;;6.96;100.00;97480.47;1713332;75;599301;-73
2023/03/31 01:03:38;;;;;;;1.70;1.30;;;;;;;7.09;100.00;97472.88;1705901;75;649386;-73
2023/03/31 01:06:10;;;;;;;1.45;1.15;;;;;;;7.02;100.00;97465.78;1712850;75;599080;-73
2023/03/31 01:08:42;;;;;;;3.65;1.50;;;;;;;7.05;100.00;97472.28;1705356;75;652404;-72
2023/03/31 01:11:16;;;;;;;2.90;1.80;;;;;;;6.98;100.00;97467.16;1713224;75;599792;-73
2023/03/31 01:13:49;;;;;;;2.80;1.90;;;;;;;7.00;100.00;97464.75;1705489;75;651922;-74
2023/03/31 01:16:22;;;;;;;3.40;2.20;;;;;;;6.96;100.00;97466.84;1713312;75;600097;-75
2023/03/31 01:18:56;;;;;;;2.90;2.05;;;;;;;7.01;100.00;97460.81;1705577;75;653124;-75
2023/03/31 01:22:14;;;;;;;2.70;1.80;;;;;;;7.02;100.00;97456.84;1713323;75;600146;-73
2023/03/31 01:25:41;;;;;;;2.50;2.00;;;;;;;7.08;100.00;97435.25;1705605;75;652489;-73
2023/03/31 01:28:30;;;;;;;1.80;1.50;;;;;;;7.07;100.00;97437.22;1705375;75;653359;-73
2023/03/31 01:32:08;;;;;;;1.90;1.40;;;;;;;7.07;100.00;97431.00;1705892;75;600593;-73
2023/03/31 01:35:26;;;;;;;2.05;1.40;;;;;;;7.19;100.00;97422.66;1705488;75;654418;-72
2023/03/31 01:38:36;;;;;;;2.70;1.80;;;;;;;7.02;100.00;97413.31;1705620;75;651357;-74
2023/03/31 01:41:25;;;;;;;1.80;1.30;;;;;;;7.07;100.00;97423.59;1705746;75;653495;-73
2023/03/31 01:44:07;;;;;;;1.70;1.40;;;;;;;7.09;100.00;97431.28;1706304;75;600319;-72
2023/03/31 01:46:44;;;;;;;2.55;1.40;;;;;;;6.97;100.00;97425.56;1712711;75;600133;-73
2023/03/31 01:49:25;;;;;;;2.10;1.30;;;;;;;6.96;100.00;97412.44;1705570;75;654609;-70
2023/03/31 01:52:03;;;;;;;2.55;1.70;;;;;;;6.86;100.00;97416.38;1706001;75;600941;-72
2023/03/31 01:54:41;;;;;;;4.40;2.70;;;;;;;6.82;100.00;97416.53;1712929;75;600825;-72
2023/03/31 01:57:22;;;;;;;3.10;2.60;;;;;;;6.89;100.00;97423.63;1705581;75;600138;-72
2023/03/31 02:00:01;;;;;;;3.95;2.90;;;;;;;6.49;100.00;97421.84;1705917;75;599931;-72
2023/03/31 02:02:35;;;;;;;3.15;2.75;;;;;;;6.50;100.00;97426.84;1713322;75;600019;-72
2023/03/31 02:05:13;;;;;;;4.40;2.60;;;;;;;6.48;100.00;97410.22;1705691;75;600088;-71
2023/03/31 02:07:49;;;;;;;2.80;2.20;;;;;;;6.60;100.00;97403.13;1712885;75;600262;-71
2023/03/31 02:10:21;;;;;;;2.55;1.90;;;;;;;6.58;100.00;97395.41;1705337;75;654331;-72
2023/03/31 02:12:55;;;;;;;2.00;1.80;;;;;;;6.47;100.00;97383.47;1712955;75;600171;-71
2023/03/31 02:15:31;;;;;;;2.70;1.80;;;;;;;6.47;100.00;97381.53;1705222;75;655630;-73
2023/03/31 02:18:09;;;;;;;2.30;1.60;;;;;;;6.49;100.00;97381.81;1706689;75;599946;-71
2023/03/31 02:20:43;;;;;;;2.20;1.60;;;;;;;6.45;100.00;97386.66;1713156;75;599077;-72
2023/03/31 02:23:16;;;;;;;2.50;1.70;;;;;;;6.40;100.00;97390.00;1706157;75;600496;-71
2023/03/31 02:25:53;;;;;;;2.30;1.60;;;;;;;6.36;100.00;97392.09;1712963;75;601163;-71
2023/03/31 02:28:29;;;;;;;2.40;2.00;;;;;;;6.17;100.00;97385.91;1706077;75;599791;-73
2023/03/31 02:31:13;;;;;;;2.50;2.10;;;;;;;6.19;100.00;97383.50;1713417;75;599773;-73
2023/03/31 02:33:43;;;;;;;2.45;2.00;;;;;;;6.16;100.00;97382.44;1705701;75;654489;-75
2023/03/31 02:36:13;;;;;;;1.80;1.70;;;;;;;6.15;100.00;97383.63;1712852;75;601004;-72
2023/03/31 02:38:52;;;;;;;1.80;1.60;;;;;;;6.10;100.00;97392.38;1705243;75;652288;-72
2023/03/31 02:41:22;;;;;;;3.20;1.40;;;;;;;6.11;100.00;97399.34;1706247;75;600101;-72
2023/03/31 02:43:55;;;;;;;2.20;1.60;;;;;;;5.98;100.00;97385.13;1713191;75;600782;-73
2023/03/31 02:46:26;;;;;;;2.40;2.00;;;;;;;5.86;100.00;97385.97;1705822;75;600123;-73
2023/03/31 02:49:02;;;;;;;5.10;3.80;;;;;;;5.60;100.00;97386.22;1712808;75;599044;-74
2023/03/31 02:52:13;;;;;;;10.70;5.50;;;;;;;5.28;100.00;97382.06;1705569;75;599140;-73
2023/03/31 02:55:21;;;;;;;5.40;3.70;;;;;;;5.61;100.00;97392.44;1705749;75;600084;-72
2023/03/31 02:58:36;;;;;;;3.60;2.35;;;;;;;5.61;100.00;97392.44;1705760;75;653408;-73
2023/03/31 03:01:33;;;;;;;3.05;2.35;;;;;;;5.60;100.00;97397.09;1705395;75;647854;-72
2023/03/31 03:04:24;;;;;;;2.90;2.40;;;;;;;5.54;100.00;97390.75;1705537;75;600141;-72
2023/03/31 03:07:05;;;;;;;5.90;4.20;;;;;;;5.40;100.00;97391.31;1705681;75;599123;-73
2023/03/31 03:09:51;;;;;;;4.20;3.10;;;;;;;5.57;100.00;97387.13;1713023;75;599901;-72
2023/03/31 03:12:27;;;;;;;3.25;2.50;;;;;;;5.45;100.00;97380.59;1705358;75;654405;-73
2023/03/31 03:15:04;;;;;;;2.90;2.00;;;;;;;5.48;100.00;97374.28;1706087;75;599110;-73
2023/03/31 03:17:42;;;;;;;3.40;2.40;;;;;;;5.40;100.00;97375.75;1712572;75;600125;-73
2023/03/31 03:20:15;;;;;;;3.00;2.20;;;;;;;5.46;100.00;97371.28;1705789;75;599842;-73
2023/03/31 03:22:45;;;;;;;3.20;1.70;;;;;;;5.49;100.00;97375.78;1713102;75;599091;-74
2023/03/31 03:25:19;;;;;;;2.25;1.70;;;;;;;5.33;100.00;97373.31;1705428;75;600153;-72
2023/03/31 03:27:51;;;;;;;2.80;2.00;;;;;;;5.25;100.00;97372.84;1712961;75;599267;-73
2023/03/31 03:30:22;;;;;;;4.05;2.10;;;;;;;5.19;100.00;97374.63;1705187;75;650380;-72
2023/03/31 03:32:57;;;;;;;2.20;1.60;;;;;;;5.23;100.00;97367.09;1713133;75;600178;-73
2023/03/31 03:35:27;;;;;;;2.25;1.50;;;;;;;5.23;100.00;97369.81;1705337;75;652292;-72
2023/03/31 03:37:57;;;;;;;2.00;1.50;;;;;;;5.24;100.00;97365.16;1713479;75;599792;-74
2023/03/31 03:40:28;;;;;;;6.30;3.80;;;;;;;4.97;100.00;97358.41;1705343;75;653418;-71
2023/03/31 03:42:58;;;;;;;5.70;3.50;;;;;;;5.01;100.00;97359.03;1713427;75;599079;-72
2023/03/31 03:45:29;;;;;;;4.85;3.15;;;;;;;5.13;100.00;97358.19;1705140;75;648116;-72
2023/03/31 03:48:01;;;;;;;4.00;2.65;;;;;;;4.96;100.00;97361.56;1713384;75;599545;-73
2023/03/31 03:50:32;;;;;;;3.20;2.25;;;;;;;4.93;100.00;97365.94;1705224;75;652462;-73
2023/03/31 03:53:02;;;;;;;3.65;2.40;;;;;;;4.81;100.00;97366.75;1713216;75;599084;-74
2023/03/31 03:55:32;;;;;;;3.80;2.60;;;;;;;4.78;100.00;97356.81;1705406;75;649603;-72
2023/03/31 03:58:02;;;;;;;3.90;2.40;;;;;;;4.66;100.00;97350.25;1713857;75;600313;-72
2023/03/31 04:00:32;;;;;;;3.65;2.25;;;;;;;4.78;100.00;97346.69;1706552;75;652415;-72
2023/03/31 04:03:05;;;;;;;2.20;1.90;;;;;;;4.72;100.00;97350.47;1713804;75;599085;-73
2023/03/31 04:05:35;;;;;;;2.40;1.90;;;;;;;4.80;100.00;97348.97;1705438;75;652368;-73
2023/03/31 04:08:07;;;;;;;2.00;1.65;;;;;;;4.85;100.00;97354.56;1712928;75;599197;-75
2023/03/31 04:10:38;;;;;;;2.20;1.60;;;;;;;4.83;100.00;97353.50;1705612;75;647832;-73
2023/03/31 04:13:08;;;;;;;2.40;1.60;;;;;;;4.72;100.00;97353.91;1712449;75;599986;-73
2023/03/31 04:15:38;;;;;;;1.60;1.50;;;;;;;4.75;100.00;97350.31;1704963;75;652730;-73
2023/03/31 04:18:21;;;;;;;2.05;1.55;;;;;;;4.65;100.00;97333.22;1713064;75;599906;-76
2023/03/31 04:20:53;;;;;;;1.95;1.45;;;;;;;4.62;100.00;97312.44;1705118;75;653217;-74
2023/03/31 04:23:25;;;;;;;1.60;1.30;;;;;;;4.62;100.00;97315.16;1712181;75;600161;-72
2023/03/31 04:25:55;;;;;;;2.15;1.50;;;;;;;4.54;100.00;97313.13;1704955;75;653398;-72
2023/03/31 04:28:25;;;;;;;5.70;3.65;;;;;;;4.25;100.00;97322.28;1713003;75;599631;-73
2023/03/31 04:30:57;;;;;;;4.15;3.00;;;;;;;4.45;100.00;97327.41;1704848;75;652359;-72
2023/03/31 04:33:32;;;;;;;3.30;2.75;;;;;;;4.35;100.00;97328.53;1712542;75;600151;-73
2023/03/31 04:36:05;;;;;;;3.00;2.30;;;;;;;4.45;100.00;97322.75;1705182;75;653354;-72
2023/03/31 04:38:36;;;;;;;3.50;1.90;;;;;;;4.35;100.00;97320.41;1712807;75;600108;-72
2023/03/31 04:41:06;;;;;;;8.95;5.00;;;;;;;3.90;100.00;97308.06;1705133;75;653359;-73
2023/03/31 04:43:36;;;;;;;10.10;8.00;;;;;;;4.01;100.00;97311.13;1712436;75;600070;-72
2023/03/31 04:46:07;;;;;;;9.60;6.05;;;;;;;4.22;100.00;97298.78;1705701;75;652393;-73
2023/03/31 04:48:39;;;;;;;6.90;4.90;;;;;;;4.27;100.00;97306.34;1713980;75;599196;-72
2023/03/31 04:51:10;;;;;;;10.15;6.85;;;;;;;4.33;100.00;97301.09;1705901;75;650158;-76
2023/03/31 04:53:40;;;;;;;6.60;5.40;;;;;;;4.38;100.00;97293.19;1713072;75;600558;-72
2023/03/31 04:56:11;;;;;;;4.75;3.85;;;;;;;4.49;100.00;97287.34;1704880;75;654454;-72
2023/03/31 04:58:41;;;;;;;4.70;3.70;;;;;;;4.55;100.00;97277.47;1713090;75;600285;-72
2023/03/31 05:01:12;;;;;;;4.00;3.20;;;;;;;4.56;100.00;97270.84;1705236;75;654123;-74
2023/03/31 05:03:46;;;;;;;5.80;3.70;;;;;;;4.43;100.00;97287.19;1711113;75;600148;-72
2023/03/31 05:06:16;;;;;;;4.95;3.90;;;;;;;4.50;100.00;97280.75;1704686;75;650081;-73
2023/03/31 05:08:47;;;;;;;5.90;4.35;;;;;;;4.57;100.00;97285.91;1712638;75;600185;-72
2023/03/31 05:11:17;;;;;;;4.50;3.40;;;;;;;4.68;100.00;97285.50;1705122;75;653369;-72
2023/03/31 05:13:47;;;;;;;7.20;5.60;;;;;;;4.58;100.00;97292.84;1712631;75;600912;-72
2023/03/31 05:16:17;;;;;;;5.35;4.70;;;;;;;4.66;100.00;97290.59;1704489;75;652418;-74
2023/03/31 05:18:50;;;;;;;5.80;3.80;;;;;;;4.62;100.00;97279.91;1712684;75;599676;-72
2023/03/31 05:21:23;;;;;;;3.65;3.10;;;;;;;4.74;100.00;97280.25;1704823;75;652406;-73
2023/03/31 05:23:53;;;;;;;3.00;2.30;;;;;;;4.78;100.00;97275.44;1712844;75;599180;-74
2023/03/31 05:26:24;;;;;;;2.85;2.25;;;;;;;4.86;100.00;97276.69;1704632;75;649294;-73
2023/03/31 05:28:54;;;;;;;2.70;2.00;;;;;;;4.85;100.00;97278.63;1712428;75;599667;-72
2023/03/31 05:31:25;;;;;;;2.25;1.80;;;;;;;4.89;100.00;97284.69;1704202;75;652805;-73
2023/03/31 05:33:58;;;;;;;5.30;4.20;;;;;;;4.78;100.00;97281.63;1712435;75;600161;-72
2023/03/31 05:36:28;;;;;;;7.90;5.40;;;;;;;4.85;100.00;97281.34;1704464;75;653383;-74
2023/03/31 05:38:58;;;;;;;6.90;4.80;;;;;;;5.02;100.00;97286.53;1712300;75;599912;-73
2023/03/31 05:41:30;;;;;;;5.95;4.55;;;;;;;5.09;100.00;97281.59;1704801;75;652247;-73
2023/03/31 05:44:01;;;;;;;6.00;4.00;;;;;;;5.19;100.00;97273.47;1711906;75;600116;-71
2023/03/31 05:46:31;;;;;;;4.25;3.85;;;;;;;5.21;100.00;97260.97;1704637;75;650565;-76
2023/03/31 05:49:03;;;;;;;6.75;5.00;;;;;;;5.33;100.00;97256.63;1712885;75;600157;-72
2023/03/31 05:51:34;;;;;;;9.90;5.65;;;;;;;5.54;100.00;97257.72;1705418;75;654108;-71
2023/03/31 05:54:05;;;;;;;6.20;5.00;;;;;;;5.66;100.00;97258.78;1713354;75;600139;-73
2023/03/31 05:56:35;;;;;;;4.50;3.85;;;;;;;5.67;100.00;97249.41;1705620;75;652355;-71
2023/03/31 05:59:05;;;;;;;3.40;3.00;;;;;;;5.71;100.00;97241.88;1712069;75;599880;-72
2023/03/31 06:01:35;;;;;;;3.00;2.70;;;;;;;5.71;100.00;97237.19;1704874;75;654553;-73
2023/03/31 06:04:08;;;;;;;4.90;2.50;;;;;;;5.71;100.00;97220.16;1712708;75;600656;-73
2023/03/31 06:06:38;;;;;;;3.60;2.80;;;;;;;5.72;100.00;97216.22;1704459;75;651826;-72
2023/03/31 06:09:10;;;;;;;4.50;2.30;;;;;;;5.82;100.00;97206.88;1712416;75;600127;-71
2023/03/31 06:11:41;;;;;;;2.00;1.90;;;;;;;5.93;100.00;97201.72;1704887;75;653340;-72
2023/03/31 06:14:11;;;;;;;3.20;2.20;;;;;;;5.91;100.00;97204.13;1712700;75;599059;-71
2023/03/31 06:16:41;;;;;;;3.65;2.55;;;;;;;5.84;100.00;97198.25;1704548;75;653390;-74
2023/03/31 06:19:14;;;;;;;2.40;2.10;;;;;;;5.93;100.00;97188.13;1712666;75;601861;-70
2023/03/31 06:21:44;;;;;;;3.10;2.40;;;;;;;6.00;100.00;97184.38;1704630;75;654574;-71
2023/03/31 06:24:14;;;;;;;2.85;2.05;;;;;;;6.04;100.00;97173.31;1711821;75;599891;-74
2023/03/31 06:26:44;;;;;;;2.55;2.00;;;;;;;6.13;100.00;97171.38;1703169;75;654412;-73
2023/03/31 06:29:14;;;;;;;2.10;1.80;;;;;;;6.18;100.00;97167.25;1712798;75;600210;-71
2023/03/31 06:31:45;;;;;;;2.10;1.90;;;;;;;6.23;100.00;97166.66;1703909;75;655519;-72
2023/03/31 06:34:17;;;;;;;1.55;1.30;;;;;;;6.30;100.00;97166.34;1712440;75;599815;-72
2023/03/31 06:36:48;;;;;;;2.00;1.80;;;;;;;6.36;100.00;97161.00;1704198;75;654724;-73
2023/03/31 06:39:18;;;;;;;2.20;1.85;;;;;;;6.35;100.00;97160.25;1712249;75;600176;-72
2023/03/31 06:41:48;;;;;;;3.95;1.90;;;;;;;6.35;100.00;97163.00;1704966;75;653429;-73
2023/03/31 06:44:21;;;;;;;2.00;1.45;;;;;;;6.45;100.00;97165.66;1712689;75;601005;-72
2023/03/31 06:46:52;;;;;;;2.35;1.75;;;;;;;6.49;100.00;97167.00;1704204;75;652316;-71
2023/03/31 06:49:25;;;;;;;3.00;1.55;;;;;;;6.59;100.00;97173.13;1712519;75;599771;-73
2023/03/31 06:51:55;;;;;;;2.10;1.60;;;;;;;6.76;100.00;97176.25;1704994;75;654580;-74
2023/03/31 06:54:25;;;;;;;2.70;1.60;;;;;;;6.86;100.00;97163.34;1712326;75;601199;-73
2023/03/31 06:56:55;;;;;;;2.40;1.70;;;;;;;6.98;100.00;97162.38;1703341;75;654528;-71
2023/03/31 06:59:25;;;;;;;3.15;1.90;;;;;;;7.25;100.00;97161.41;1711786;75;601209;-72
2023/03/31 07:01:55;;;;;;;2.70;1.85;;;;;;;7.36;100.00;97160.88;1704688;75;655501;-71
2023/03/31 07:04:28;;;;;;;2.45;2.10;;;;;;;7.55;100.00;97156.03;1711520;75;601317;-72
2023/03/31 07:07:00;;;;;;;2.70;1.90;;;;;;;7.83;100.00;97162.00;1704492;75;653435;-72
2023/03/31 07:09:30;;;;;;;2.85;1.65;;;;;;;7.99;100.00;97164.25;1712505;75;600870;-74
2023/03/31 07:12:00;;;;;;;2.30;1.90;;;;;;;8.17;100.00;97159.81;1704985;75;655007;-73
2023/03/31 07:14:30;;;;;;;4.65;2.05;;;;;;;8.41;100.00;97148.81;1712219;75;601055;-72
2023/03/31 07:17:00;;;;;;;6.45;3.05;;;;;;;8.59;100.00;97142.41;1704146;75;654550;-74
2023/03/31 07:19:36;;;;;;;3.80;2.80;;;;;;;8.94;100.00;97131.44;1712473;75;600115;-71
2023/03/31 07:22:06;;;;;;;4.40;2.80;;;;;;;9.07;100.00;97120.19;1704915;75;651015;-72
2023/03/31 07:24:36;;;;;;;4.90;3.75;;;;;;;9.23;100.00;97107.94;1712137;75;601177;-74
2023/03/31 07:27:07;;;;;;;5.25;3.90;;;;;;;9.59;100.00;97101.13;1704582;75;651378;-73
2023/03/31 07:29:37;;;;;;;10.80;6.25;;;;;;;9.74;100.00;97103.72;1712582;75;602219;-74
2023/03/31 07:32:07;;;;;;;5.65;4.40;;;;;;;9.93;100.00;97101.41;1705173;75;655576;-72
2023/03/31 07:34:40;;;;;;;7.40;4.50;;;;;;;10.04;100.00;97109.72;1712391;75;602211;-72
2023/03/31 07:37:10;;;;;;;5.90;4.15;;;;;;;10.02;100.00;97109.44;1704551;75;653221;-74
2023/03/31 07:39:41;;;;;;;4.80;3.95;;;;;;;10.05;100.00;97111.19;1712068;75;602081;-72
2023/03/31 07:42:11;;;;;;;6.95;3.70;;;;;;;10.00;100.00;97114.66;1704624;75;654213;-73
2023/03/31 07:44:41;;;;;;;4.45;3.45;;;;;;;10.21;100.00;97107.84;1712440;75;602187;-72
2023/03/31 07:47:11;;;;;;;3.30;2.80;;;;;;;10.20;100.00;97108.34;1704184;75;655972;-73
2023/03/31 07:49:44;;;;;;;4.60;2.90;;;;;;;10.42;100.00;97114.00;1712425;75;602208;-72
2023/03/31 07:52:14;;;;;;;4.50;3.10;;;;;;;10.57;100.00;97119.31;1704837;75;655516;-71
2023/03/31 07:54:44;;;;;;;4.20;2.85;;;;;;;11.04;100.00;97110.81;1712130;75;601150;-76
2023/03/31 07:57:16;;;;;;;5.00;2.60;;;;;;;11.20;100.00;97101.19;1703807;75;654253;-72
2023/03/31 07:59:46;;;;;;;3.60;2.40;;;;;;;11.26;98.62;97110.91;1711999;75;601277;-72
2023/03/31 08:02:19;;;;;;;4.10;2.75;;;;;;;11.27;96.94;97111.66;1703847;75;653432;-73
2023/03/31 08:04:52;;;;;;;4.20;2.90;;;;;;;11.55;100.00;97108.25;1712413;75;601798;-72
2023/03/31 08:07:22;;;;;;;4.55;3.20;;;;;;;11.62;100.00;97097.56;1704479;75;654485;-72
2023/03/31 08:09:52;;;;;;;5.00;3.70;;;;;;;11.67;94.20;97094.06;1712194;75;602215;-72
2023/03/31 08:12:22;;;;;;;5.65;3.30;;;;;;;11.74;96.55;97090.09;1704701;75;654585;-73
2023/03/31 08:14:53;;;;;;;4.50;2.85;;;;;;;11.92;93.89;97086.88;1712305;75;601454;-73
2023/03/31 08:17:23;;;;;;;4.15;2.65;;;;;;;12.20;91.42;97075.16;1704542;75;654434;-73
2023/03/31 08:19:56;;;;;;;2.60;2.10;;;;;;;12.40;91.72;97065.88;1712577;75;601127;-73
2023/03/31 08:22:26;;;;;;;2.55;1.80;;;;;;;12.63;89.50;97066.56;1704784;75;654439;-72
2023/03/31 08:24:56;;;;;;;3.50;2.20;;;;;;;12.60;83.87;97059.34;1712500;75;601178;-73
2023/03/31 08:27:26;;;;;;;1.50;1.30;;;;;;;12.91;82.73;97054.72;1704842;75;655114;-72
2023/03/31 08:29:56;;;;;;;3.25;1.60;;;;;;;12.95;82.60;97049.72;1712273;75;600126;-72
2023/03/31 08:32:26;;;;;;;3.35;2.15;;;;;;;12.99;80.70;97045.47;1704597;75;651771;-72
2023/03/31 08:34:59;;;;;;;4.90;3.00;;;;;;;12.72;80.79;97038.84;1712031;75;601171;-71
2023/03/31 08:37:30;;;;;;;3.55;2.15;;;;;;;12.82;80.73;97024.81;1704306;75;655594;-72
2023/03/31 08:40:02;;;;;;;2.10;1.80;;;;;;;13.18;78.88;97014.63;1711573;75;601071;-72
2023/03/31 08:42:41;;;;;;;4.10;2.10;;;;;;;13.21;77.23;97010.88;1703977;75;651170;-72
2023/03/31 08:45:26;;;;;;;2.90;1.90;;;;;;;13.32;77.28;97018.31;1703691;75;601258;-73
2023/03/31 08:48:03;;;;;;;1.60;1.40;;;;;;;13.71;75.29;97012.56;1712311;75;601191;-71
2023/03/31 08:50:40;;;;;;;2.00;1.60;;;;;;;13.52;75.92;97006.22;1704525;75;654493;-71
2023/03/31 08:53:20;;;;;;;;;;;;;;;13.21;73.69;97002.63;1705195;75;601483;-71
2023/03/31 08:55:54;;;;;;;4.85;1.95;;;;;;;13.42;72.69;97001.00;1711896;75;601245;-73
2023/03/31 08:58:39;;;;;;;3.90;1.50;;;;;;;13.78;71.30;96998.25;1704928;75;600792;-72
2023/03/31 09:01:21;;;;;;;2.90;1.50;;;;;;;13.98;70.96;96993.56;1705229;75;600928;-71
2023/03/31 09:04:12;;;;;;;1.50;1.30;;;;;;;14.63;67.24;96981.63;1711334;75;601281;-71
2023/03/31 09:06:53;;;;;;;1.75;1.30;;;;;;;14.67;65.70;96965.53;1703430;75;653443;-73
2023/03/31 09:09:37;;;;;;;2.25;1.30;;;;;;;15.10;65.52;96961.19;1704404;75;601216;-72
2023/03/31 09:12:14;;;;;;;1.70;1.10;;;;;;;15.48;61.72;96944.56;1711065;75;600958;-72
2023/03/31 09:14:51;;;;;;;3.55;2.30;;;;;;;15.68;62.69;96941.25;1703178;75;654438;-73
2023/03/31 09:17:26;;;;;;;1.80;1.50;;;;;;;15.34;63.51;96928.00;1703375;75;601253;-71
2023/03/31 09:20:00;;;;;;;1.30;1.10;;;;;;;16.09;61.44;96922.72;1711948;75;600898;-74
2023/03/31 09:22:37;;;;;;;2.80;1.50;;;;;;;16.98;58.91;96922.16;1704694;75;602252;-72
2023/03/31 09:25:13;;;;;;;1.60;1.10;;;;;;;17.88;56.76;96917.25;1711963;75;602016;-72
2023/03/31 09:27:46;;;;;;;1.25;0.85;;;;;;;17.78;56.42;96921.78;1705456;75;601867;-73
2023/03/31 09:30:21;;;;;;;1.60;1.10;;;;;;;18.46;53.96;96926.25;1712348;75;601515;-73
2023/03/31 09:32:55;;;;;;;3.05;1.15;;;;;;;18.42;54.32;96923.81;1704707;75;652285;-73
2023/03/31 09:35:32;;;;;;;1.40;0.90;;;;;;;19.26;52.79;96906.72;1711613;75;602173;-73
2023/03/31 09:38:05;;;;;;;2.00;1.20;;;;;;;19.34;52.17;96907.47;1704765;75;652274;-73
2023/03/31 09:40:36;;;;;;;1.80;1.20;;;;;;;19.86;51.70;96910.06;1711926;75;602255;-72
2023/03/31 09:43:11;;;;;;;1.65;1.10;;;;;;;19.78;51.84;96892.69;1703786;75;655481;-73
2023/03/31 09:45:41;;;;;;;1.90;1.40;;;;;;;19.62;51.46;96891.19;1711662;75;600178;-72
2023/03/31 09:48:18;;;;;;;2.65;1.60;;;;;;;18.63;52.00;96884.91;1703391;75;655380;-73
2023/03/31 09:50:52;;;;;;;2.00;0.90;;;;;;;19.81;51.10;96872.13;1704655;75;601321;-71
2023/03/31 09:53:34;;;;;;;1.90;1.00;;;;;;;19.91;51.06;96875.06;1711744;75;600509;-70
2023/03/31 09:56:06;;;;;;;1.60;1.30;;;;;;;;;;1704208;75;600999;-72
2023/03/31 09:58:44;;;;;;;2.30;1.10;;;;;;;19.11;52.40;96876.19;1711895;75;602227;-72
2023/03/31 10:01:17;;;;;;;1.90;1.10;;;;;;;19.86;52.87;96876.00;1701187;75;655577;-72
2023/03/31 10:03:53;;;;;;;1.80;1.40;;;;;;;19.47;51.89;96869.72;1711506;75;601209;-73
2023/03/31 10:06:24;;;;;;;1.90;1.40;;;;;;;19.88;51.58;96871.38;1704444;75;654470;-72
2023/03/31 10:08:59;;;;;;;2.70;1.10;;;;;;;19.87;51.99;96852.50;1712681;75;599782;-71
2023/03/31 10:11:30;;;;;;;1.80;1.15;;;;;;;20.39;50.36;96850.81;1705223;75;652380;-73
2023/03/31 10:14:06;;;;;;;3.60;1.20;;;;;;;19.89;51.78;96867.31;1712722;75;602232;-74
2023/03/31 10:16:46;;;;;;;2.05;1.40;;;;;;;19.20;51.62;96861.03;1704615;75;656550;-77
2023/03/31 10:19:23;;;;;;;1.80;1.30;;;;;;;18.81;52.37;96857.44;1705669;75;601911;-74
2023/03/31 10:21:59;;;;;;;;;;;;;;;17.51;54.96;96854.75;1712635;75;602265;-71
2023/03/31 10:24:40;;;;;;;2.50;1.40;;;;;;;17.66;55.65;96847.31;1705701;75;602226;-71
2023/03/31 10:27:23;;;;;;;2.60;1.80;;;;;;;17.61;54.98;96836.41;1712288;75;601255;-72
2023/03/31 10:29:56;;;;;;;1.50;1.40;;;;;;;17.78;54.96;96828.38;1704785;75;656573;-71
2023/03/31 10:32:30;;;;;;;4.30;2.50;;;;;;;17.25;54.79;96817.69;1712245;75;601975;-71
2023/03/31 10:35:06;;;;;;;4.35;1.70;;;;;;;16.63;55.43;96819.16;1704633;75;656497;-77
2023/03/31 10:37:39;;;;;;;1.50;0.90;;;;;;;16.66;55.06;96809.78;1705515;75;601172;-71
2023/03/31 10:40:21;;;;;;;1.00;0.90;;;;;;;16.85;55.85;96795.78;1712576;75;600163;-71
2023/03/31 10:43:03;;;;;;;1.40;0.90;;;;;;;16.68;56.28;96784.38;1705506;75;600145;-76
2023/03/31 10:45:40;;;;;;;2.80;1.35;;;;;;;16.38;58.20;96786.28;1711918;75;600186;-70
2023/03/31 10:48:25;;;;;;;2.75;1.35;;;;;;;15.86;59.23;96784.41;1704335;75;653529;-72
2023/03/31 10:50:56;;;;;;;1.80;1.20;;;;;;;15.94;59.69;96785.22;1705135;75;601521;-71
2023/03/31 10:53:26;;;;;;;1.55;1.10;;;;;;;16.12;60.05;96789.13;1713037;75;600260;-73
2023/03/31 10:56:17;;;;;;;1.30;1.00;;;;;;;15.96;60.50;96780.66;1704985;75;601252;-70
2023/03/31 10:59:09;;;;;;;1.10;0.80;;;;;;;16.07;61.04;96782.44;1705533;75;601189;-74
2023/03/31 11:01:58;;;;;;;2.00;1.30;;;;;;;15.96;60.85;96760.59;1712002;75;601183;-72
2023/03/31 11:05:04;;;;;;;1.45;1.20;;;;;;;15.71;61.31;96762.88;1705015;75;654483;-72
2023/03/31 11:07:51;;;;;;;1.80;1.10;;;;;;;15.82;61.42;96757.09;1704349;75;653652;-72
2023/03/31 11:10:48;;;;;;;1.85;1.25;;;;;;;15.88;62.37;96745.97;1705582;75;600120;-74
2023/03/31 11:13:27;;;;;;;;;;;;;;;15.84;62.08;96745.53;1705435;75;600153;-71
2023/03/31 11:16:06;;;;;;;1.85;1.30;;;;;;;16.05;62.15;96735.31;1712014;75;599127;-76
2023/03/31 11:19:00;;;;;;;1.15;1.05;;;;;;;16.15;59.58;96711.47;1704405;75;655511;-73
2023/03/31 11:21:45;;;;;;;4.10;2.05;;;;;;;16.44;59.48;96683.94;1705164;75;601046;-72
2023/03/31 11:24:31;;;;;;;1.90;1.40;;;;;;;17.17;57.03;96697.97;1705486;75;601194;-72
2023/03/31 11:27:14;;;;;;;2.70;1.60;;;;;;;16.78;56.54;96700.47;1712268;75;601209;-73
2023/03/31 11:29:53;;;;;;;2.20;1.50;;;;;;;17.64;53.78;96688.63;1704256;75;654477;-74
2023/03/31 11:32:50;;;;;;;4.20;1.55;;;;;;;17.68;52.46;96678.66;1704877;75;601936;-73
2023/03/31 11:35:42;;;;;;;0.50;0.50;;;;;;;18.32;52.08;96690.09;1704247;75;599982;-73
2023/03/31 11:38:46;;;;;;;0.90;0.80;;;;;;;18.18;51.30;96688.78;1711545;75;600920;-72
2023/03/31 11:41:21;;;;;;;1.20;0.90;;;;;;;18.19;50.51;96687.50;1704756;75;654463;-72
2023/03/31 11:43:55;;;;;;;1.45;0.90;;;;;;;17.59;50.35;96683.97;1710408;75;602190;-73
2023/03/31 11:46:34;;;;;;;1.60;1.00;;;;;;;18.20;50.70;96689.72;1711647;75;600994;-71
2023/03/31 11:49:08;;;;;;;1.80;1.10;;;;;;;18.12;51.60;96680.66;1705193;75;599788;-74
2023/03/31 11:51:49;;;;;;;1.80;1.00;;;;;;;18.26;49.86;96678.47;1712524;75;600829;-74
2023/03/31 11:54:27;;;;;;;1.00;0.75;;;;;;;18.49;49.02;96668.13;1703768;75;656631;-76
2023/03/31 11:56:58;;;;;;;1.50;0.70;;;;;;;18.00;49.16;96663.66;1704406;75;602275;-71
2023/03/31 11:59:31;;;;;;;1.50;0.90;;;;;;;17.31;50.79;96670.94;1712314;75;602276;-73
2023/03/31 12:02:18;;;;;;;1.50;0.90;;;;;;;17.38;51.49;96670.22;1704541;75;601839;-72
2023/03/31 12:04:55;;;;;;;3.40;1.20;;;;;;;17.71;52.85;96662.25;1712276;75;602429;-73
2023/03/31 12:07:33;;;;;;;1.15;1.05;;;;;;;17.73;51.83;96646.56;1703846;75;655251;-73